Route Details

Aircraft Information
Group: North America Fleet
Types: B738, B752, B762, B763
Route Data
Distance: 1034nm
Duration: 2h 54m
Origin METAR: KIAH 010553Z 35011KT 10SM OVC007 03/02 A3028 RMK AO2 SLP254 T00330022 10033 20028 400610022 58001
Dest. METAR: KIAD 010627Z 02008KT 5SM -RA BR FEW007 SCT010 OVC015 02/M01 A3019 RMK AO2 RAB25 P0000 T00171006
Freight Data
(for Feb 1, 2023)
Load Factor:
66%
Manifested Cargo: 37,010lbs
Financial History
Total Freight: 0lbs
Average Load: 0lbs/flt
Fuel Used: 0lbs
Avg. Fuel Used: 0lbs/flt
Fuel Expense: $0
Avg. Fuel Expense: $0
Avg. Fuel Cost: $0/lbs
Total Gross Income: $0
Pilot Pay: $0
Total Expenses: $0
Total Revenue: $0
Average Revenue: $0

Capitol Logistics 379




KIAH
George Bush Intcntl/Houston Airport
Houston, Texas
KIAD
Washington Dulles International Airport
Dulles, Virginia

Activity Log

Date Flight Route Aircraft Duration
No Flights Yet